createdAt,value
2016-09-25T00:00:06.657Z,81.9
2016-09-25T00:00:27.242Z,82
2016-09-25T00:00:47.829Z,81.6
2016-09-25T00:01:08.458Z,82.1
2016-09-25T00:01:29.035Z,81.9
2016-09-25T00:01:49.604Z,81.5
2016-09-25T00:02:10.186Z,82.4
2016-09-25T00:02:30.776Z,82.4
2016-09-25T00:02:51.396Z,82.4
2016-09-25T00:03:11.981Z,82.5
2016-09-25T00:03:32.553Z,82.6
2016-09-25T00:03:53.147Z,82.2
2016-09-25T00:04:13.757Z,82.6
2016-09-25T00:04:34.320Z,82.5
2016-09-25T00:04:54.925Z,83.1
2016-09-25T00:05:15.511Z,82.7
2016-09-25T00:05:36.094Z,83.1
2016-09-25T00:05:56.687Z,83.1
2016-09-25T00:06:17.265Z,82.9
2016-09-25T00:06:37.894Z,83
2016-09-25T00:06:58.470Z,82.9
2016-09-25T00:07:19.055Z,82.7
2016-09-25T00:07:39.655Z,82.9
2016-09-25T00:08:00.231Z,82.7
2016-09-25T00:08:20.823Z,82.5
2016-09-25T00:08:41.409Z,82.7
2016-09-25T00:09:01.993Z,83
2016-09-25T00:09:22.579Z,82.8
2016-09-25T00:09:43.164Z,82.7
2016-09-25T00:10:03.750Z,82.4
2016-09-25T00:10:24.320Z,82.9
2016-09-25T00:10:44.905Z,82.2
2016-09-25T00:11:05.506Z,82.8
2016-09-25T00:11:26.093Z,82.4
2016-09-25T00:11:46.696Z,82.2
2016-09-25T00:12:07.283Z,82.5
2016-09-25T00:12:27.871Z,82.6
2016-09-25T00:12:48.456Z,82.9
2016-09-25T00:13:09.068Z,82.8
2016-09-25T00:13:29.649Z,82.2
2016-09-25T00:13:50.230Z,82.7
2016-09-25T00:14:10.803Z,82.6
2016-09-25T00:14:31.414Z,82.6
2016-09-25T00:14:52.004Z,83.1
2016-09-25T00:15:12.581Z,82.9
2016-09-25T00:15:33.167Z,82.9
2016-09-25T00:15:53.748Z,83
2016-09-25T00:16:14.338Z,82.4
2016-09-25T00:16:34.943Z,82.7
2016-09-25T00:16:55.541Z,82.4
2016-09-25T00:17:16.130Z,83.1
2016-09-25T00:17:36.704Z,83
2016-09-25T00:17:57.289Z,82.8
2016-09-25T00:18:17.893Z,82.9
2016-09-25T00:18:38.465Z,82.9
2016-09-25T00:18:59.062Z,82.6
2016-09-25T00:19:19.657Z,82.6
2016-09-25T00:19:40.257Z,83
2016-09-25T00:20:00.841Z,82.9
2016-09-25T00:20:21.411Z,82.7
2016-09-25T00:20:41.999Z,82.6
2016-09-25T00:21:02.588Z,82.9
2016-09-25T00:21:23.195Z,82.6
2016-09-25T00:21:43.796Z,83.1
2016-09-25T00:22:04.368Z,83.1
2016-09-25T00:22:24.954Z,82.6
2016-09-25T00:22:45.548Z,82.5
2016-09-25T00:23:06.130Z,82.3
2016-09-25T00:23:26.727Z,82.7
2016-09-25T00:23:47.319Z,82.6
2016-09-25T00:24:07.918Z,82.6
2016-09-25T00:24:28.495Z,82.6
2016-09-25T00:24:49.098Z,82.4
2016-09-25T00:25:09.704Z,82.5
2016-09-25T00:25:30.295Z,82.9
2016-09-25T00:25:50.885Z,82.2
2016-09-25T00:26:11.467Z,82.6
2016-09-25T00:26:32.049Z,82.3
2016-09-25T00:26:52.631Z,82.3
2016-09-25T00:27:13.208Z,82.4
2016-09-25T00:27:33.780Z,82.4
2016-09-25T00:27:54.390Z,82.8
2016-09-25T00:28:14.977Z,82.6
2016-09-25T00:28:35.575Z,82.8
2016-09-25T00:28:56.149Z,82.6
2016-09-25T00:29:16.738Z,82.7
2016-09-25T00:29:37.327Z,82.8
2016-09-25T00:29:57.924Z,82.8
2016-09-25T00:30:18.522Z,82.6
2016-09-25T00:30:39.097Z,82.5
2016-09-25T00:30:59.701Z,82.5
2016-09-25T00:31:20.282Z,82.6
2016-09-25T00:31:40.846Z,82.5
2016-09-25T00:32:01.434Z,82.5
2016-09-25T00:32:22.014Z,82.5
2016-09-25T00:32:42.613Z,82.5
2016-09-25T00:33:03.213Z,82.7
2016-09-25T00:33:23.810Z,82.7
2016-09-25T00:33:44.384Z,82.4
2016-09-25T00:34:04.971Z,82.7
2016-09-25T00:34:25.558Z,82.6
2016-09-25T00:34:46.150Z,82.8
2016-09-25T00:35:06.711Z,82.6
2016-09-25T00:35:27.283Z,83
2016-09-25T00:35:47.863Z,82.6
2016-09-25T00:36:08.434Z,82.4
2016-09-25T00:36:29.033Z,82.4
2016-09-25T00:36:49.614Z,83.2
2016-09-25T00:37:10.202Z,82.8
2016-09-25T00:37:30.795Z,83.1
2016-09-25T00:37:51.354Z,82.7
2016-09-25T00:38:11.985Z,82.8
2016-09-25T00:38:32.580Z,82.9
2016-09-25T00:38:53.149Z,82.8
2016-09-25T00:39:13.733Z,82.8
2016-09-25T00:39:34.315Z,83
2016-09-25T00:39:54.934Z,83.6
2016-09-25T00:40:15.513Z,83.4
2016-09-25T00:40:36.103Z,83.6
2016-09-25T00:40:56.687Z,83.5
2016-09-25T00:41:17.269Z,82.7
2016-09-25T00:41:37.845Z,83.1
2016-09-25T00:41:58.433Z,83
2016-09-25T00:42:19.007Z,82.5
2016-09-25T00:42:39.601Z,82.8
2016-09-25T00:43:00.192Z,82.5
2016-09-25T00:43:20.787Z,82.8
2016-09-25T00:43:41.379Z,82.5
2016-09-25T00:44:01.945Z,82.8
2016-09-25T00:44:22.519Z,82.7
2016-09-25T00:44:43.109Z,82.8
2016-09-25T00:45:03.697Z,82.2
2016-09-25T00:45:24.279Z,82.6
2016-09-25T00:45:44.853Z,82.4
2016-09-25T00:46:05.439Z,82.4
2016-09-25T00:46:26.031Z,82.6
2016-09-25T00:46:46.608Z,82.6
2016-09-25T00:47:07.190Z,82.7
2016-09-25T00:47:27.783Z,82.2
2016-09-25T00:47:48.367Z,82.7
2016-09-25T00:48:08.969Z,82.6
2016-09-25T00:48:29.554Z,82.6
2016-09-25T00:48:50.111Z,82.6
2016-09-25T00:49:10.673Z,82.4
2016-09-25T00:49:31.252Z,83.1
2016-09-25T00:49:51.859Z,82.9
2016-09-25T00:50:12.459Z,82.4
2016-09-25T00:50:33.040Z,82.9
2016-09-25T00:50:53.608Z,82.5
2016-09-25T00:51:14.193Z,82.6
2016-09-25T00:51:34.772Z,82.6
2016-09-25T00:51:55.339Z,82.4
2016-09-25T00:52:15.914Z,82.4
2016-09-25T00:52:36.494Z,82.3
2016-09-25T00:52:57.074Z,82.7
2016-09-25T00:53:17.653Z,83
2016-09-25T00:53:38.240Z,82.6
2016-09-25T00:53:58.817Z,82.8
2016-09-25T00:54:19.391Z,82.8
2016-09-25T00:54:39.965Z,83
2016-09-25T00:55:00.551Z,82.9
2016-09-25T00:55:21.139Z,82.9
2016-09-25T00:55:41.722Z,82.8
2016-09-25T00:56:02.298Z,82.9
2016-09-25T00:56:22.908Z,82.7
2016-09-25T00:56:43.481Z,83.2
2016-09-25T00:57:04.043Z,82.8
2016-09-25T00:57:24.624Z,83.2
2016-09-25T00:57:45.248Z,83.5
2016-09-25T00:58:05.832Z,83.4
2016-09-25T00:58:26.407Z,83.7
2016-09-25T00:58:47.002Z,83.4
2016-09-25T00:59:07.566Z,83.4
2016-09-25T00:59:28.156Z,83.5
2016-09-25T00:59:48.740Z,83.6
2016-09-25T01:00:09.358Z,83.9
2016-09-25T01:00:29.945Z,83.2
2016-09-25T01:00:50.525Z,83
2016-09-25T01:01:11.121Z,82.8
2016-09-25T01:01:31.719Z,82.8
2016-09-25T01:01:52.318Z,82.5
2016-09-25T01:02:12.910Z,82.8
2016-09-25T01:02:33.501Z,82.8
2016-09-25T01:02:54.086Z,82.7
2016-09-25T01:03:14.687Z,83.2
2016-09-25T01:03:35.273Z,82.8
2016-09-25T01:03:55.863Z,82.7
2016-09-25T01:04:16.436Z,82.8
2016-09-25T01:04:37.022Z,82.9
2016-09-25T01:04:57.602Z,83.2
2016-09-25T01:05:18.170Z,83
2016-09-25T01:05:38.804Z,82.8
2016-09-25T01:05:59.391Z,83.3
2016-09-25T01:06:19.966Z,83.6
2016-09-25T01:06:40.575Z,83.7
2016-09-25T01:07:01.159Z,83.7
2016-09-25T01:07:21.730Z,83.5
2016-09-25T01:07:42.340Z,83.2
2016-09-25T01:08:02.936Z,83.5
2016-09-25T01:08:23.531Z,83.4
2016-09-25T01:08:44.121Z,83.2
2016-09-25T01:09:04.705Z,83.4
2016-09-25T01:09:25.310Z,83.3
2016-09-25T01:09:45.875Z,83.7
2016-09-25T01:10:06.464Z,82.8
2016-09-25T01:10:27.050Z,82.7
2016-09-25T01:10:47.628Z,83
2016-09-25T01:11:08.230Z,83
2016-09-25T01:11:28.822Z,83.1
2016-09-25T01:11:49.421Z,82.9
2016-09-25T01:12:09.999Z,82.7
2016-09-25T01:12:30.590Z,83
2016-09-25T01:12:51.170Z,83
2016-09-25T01:13:11.753Z,82.7
2016-09-25T01:13:32.345Z,83
2016-09-25T01:13:52.924Z,82.7
2016-09-25T01:14:13.510Z,82.9
2016-09-25T01:14:34.106Z,82.9
2016-09-25T01:14:54.707Z,83
2016-09-25T01:15:15.300Z,83.1
2016-09-25T01:15:35.881Z,83.7
2016-09-25T01:15:56.450Z,83.2
2016-09-25T01:16:17.050Z,83.4
2016-09-25T01:16:37.653Z,83.5
2016-09-25T01:16:58.247Z,83.6
2016-09-25T01:17:18.824Z,83.4
2016-09-25T01:17:39.389Z,83.4
2016-09-25T01:17:59.963Z,83.4
2016-09-25T01:18:20.553Z,83.4
2016-09-25T01:18:41.123Z,83.5
2016-09-25T01:19:01.694Z,83.2
2016-09-25T01:19:22.279Z,83.5
2016-09-25T01:19:42.880Z,83.8
2016-09-25T01:20:03.468Z,83.7
2016-09-25T01:20:24.053Z,83.5
2016-09-25T01:20:44.642Z,83.9
2016-09-25T01:21:05.223Z,83.7
2016-09-25T01:21:25.804Z,83.6
2016-09-25T01:21:46.410Z,83.6
2016-09-25T01:22:06.994Z,83.5
2016-09-25T01:22:27.594Z,83.5
2016-09-25T01:22:48.158Z,83.6
2016-09-25T01:23:08.737Z,83.3
2016-09-25T01:23:29.322Z,84.3
2016-09-25T01:23:49.911Z,84.1
2016-09-25T01:24:10.487Z,84
2016-09-25T01:24:31.075Z,84.7
2016-09-25T01:24:51.652Z,84.2
2016-09-25T01:25:12.228Z,84.2
2016-09-25T01:25:32.828Z,84.5
2016-09-25T01:25:53.426Z,84.2
2016-09-25T01:26:14.030Z,84.5
2016-09-25T01:26:34.599Z,84.3
2016-09-25T01:26:55.202Z,84.2
2016-09-25T01:27:15.787Z,84.2
2016-09-25T01:27:36.371Z,84.3
2016-09-25T01:27:56.951Z,84
2016-09-25T01:28:17.527Z,84
2016-09-25T01:28:38.119Z,84
2016-09-25T01:28:58.712Z,84.1
2016-09-25T01:29:19.297Z,84.1
2016-09-25T01:29:39.876Z,84.1
2016-09-25T01:30:00.449Z,84
2016-09-25T01:30:21.036Z,84.6
2016-09-25T01:30:41.613Z,84.5
2016-09-25T01:31:02.191Z,84.4
2016-09-25T01:31:22.763Z,84.4
2016-09-25T01:31:43.342Z,84.3
2016-09-25T01:32:03.919Z,84.6
2016-09-25T01:32:24.498Z,84.4
2016-09-25T01:32:45.088Z,84.7
2016-09-25T01:33:05.684Z,85.3
2016-09-25T01:33:26.266Z,85.3
2016-09-25T01:33:46.838Z,85.1
2016-09-25T01:34:07.418Z,85.2
2016-09-25T01:34:28.016Z,85
2016-09-25T01:34:48.614Z,85.1
2016-09-25T01:35:09.205Z,85.3
2016-09-25T01:35:29.815Z,84.9
2016-09-25T01:35:50.405Z,84.9
2016-09-25T01:36:10.982Z,85.1
2016-09-25T01:36:31.575Z,85
2016-09-25T01:36:52.183Z,84.9
2016-09-25T01:37:12.783Z,85.1
2016-09-25T01:37:33.364Z,85.3
2016-09-25T01:37:53.953Z,85
2016-09-25T01:38:14.551Z,85
2016-09-25T01:38:35.176Z,85.2
2016-09-25T01:38:55.784Z,85.1
2016-09-25T01:39:16.369Z,84.9
2016-09-25T01:39:36.949Z,85.1
2016-09-25T01:39:57.548Z,84.9
2016-09-25T01:40:18.138Z,84.9
2016-09-25T01:40:38.732Z,85
2016-09-25T01:40:59.328Z,85
2016-09-25T01:41:19.918Z,85.2
2016-09-25T01:41:40.494Z,85.3
2016-09-25T01:42:01.107Z,85.1
2016-09-25T01:42:21.701Z,84.2
2016-09-25T01:42:42.311Z,84.9
2016-09-25T01:43:02.900Z,84.4
2016-09-25T01:43:23.497Z,84.9
2016-09-25T01:43:44.098Z,84.2
2016-09-25T01:44:04.692Z,84.6
2016-09-25T01:44:25.302Z,84.4
2016-09-25T01:44:45.906Z,84.7
2016-09-25T01:45:06.531Z,84.4
2016-09-25T01:45:27.177Z,84.3
2016-09-25T01:45:47.858Z,84.4
2016-09-25T01:46:08.728Z,84.3
2016-09-25T01:46:29.318Z,84.4
2016-09-25T01:46:49.948Z,84.4
2016-09-25T01:47:10.538Z,84.6
2016-09-25T01:47:31.125Z,84.4
2016-09-25T01:47:51.813Z,84.3
2016-09-25T01:48:12.429Z,84.5
2016-09-25T01:48:34.101Z,84.2
2016-09-25T01:48:54.705Z,84.7
2016-09-25T01:49:15.298Z,84.3
2016-09-25T01:49:36.021Z,84.3
2016-09-25T01:49:57.339Z,84.4
2016-09-25T01:50:18.150Z,84.5
2016-09-25T01:50:39.125Z,84.4
2016-09-25T01:50:59.704Z,84.4
2016-09-25T01:51:20.319Z,84.5
2016-09-25T01:51:40.946Z,84.1
2016-09-25T01:52:01.577Z,84
2016-09-25T01:52:22.167Z,83.9
2016-09-25T01:52:42.770Z,83.8
2016-09-25T01:53:03.351Z,83.9
2016-09-25T01:53:23.985Z,84.2
2016-09-25T01:53:44.597Z,84.1
2016-09-25T01:54:05.207Z,83.6
2016-09-25T01:54:25.802Z,83.5
2016-09-25T01:54:46.409Z,83.6
2016-09-25T01:55:07.013Z,83.6
2016-09-25T01:55:27.609Z,83.6
2016-09-25T01:55:48.214Z,83.6
2016-09-25T01:56:08.792Z,83.9
2016-09-25T01:56:29.407Z,83.5
2016-09-25T01:56:50.001Z,84
2016-09-25T01:57:10.604Z,83.1
2016-09-25T01:57:31.304Z,83.1
2016-09-25T01:57:51.894Z,83.4
2016-09-25T01:58:12.493Z,83.5
2016-09-25T01:58:33.108Z,83.4
2016-09-25T01:58:53.720Z,83.3
2016-09-25T01:59:14.330Z,83.2
2016-09-25T01:59:34.911Z,83.3
2016-09-25T01:59:55.494Z,84
2016-09-25T02:00:16.110Z,83.4
2016-09-25T02:00:36.704Z,83.6
2016-09-25T02:00:57.283Z,83.4
2016-09-25T02:01:17.875Z,83.4
2016-09-25T02:01:38.476Z,83.9
2016-09-25T02:01:59.077Z,83.9
2016-09-25T02:02:19.681Z,83.6
2016-09-25T02:02:40.271Z,83.5
2016-09-25T02:03:00.869Z,83.6
2016-09-25T02:03:21.482Z,83.6
2016-09-25T02:03:42.080Z,83.4
2016-09-25T02:04:02.682Z,83.6
2016-09-25T02:04:23.268Z,83.4
2016-09-25T02:04:43.877Z,83.6
2016-09-25T02:05:04.470Z,83.5
2016-09-25T02:05:25.063Z,83.4
2016-09-25T02:05:45.660Z,83.8
2016-09-25T02:06:06.269Z,83.7
2016-09-25T02:06:26.846Z,83.7
2016-09-25T02:06:47.457Z,83.5
2016-09-25T02:07:08.053Z,83.6
2016-09-25T02:07:28.637Z,83.6
2016-09-25T02:07:49.220Z,83.5
2016-09-25T02:08:09.807Z,83.6
2016-09-25T02:08:30.397Z,83.8
2016-09-25T02:08:51.016Z,83.5
2016-09-25T02:09:11.622Z,83.4
2016-09-25T02:09:32.211Z,83.6
2016-09-25T02:09:52.807Z,83.3
2016-09-25T02:10:13.401Z,83.3
2016-09-25T02:10:34.002Z,83.3
2016-09-25T02:10:54.596Z,83.3
2016-09-25T02:11:15.176Z,83.4
2016-09-25T02:11:35.759Z,83.4
2016-09-25T02:11:56.353Z,83.6
2016-09-25T02:12:16.935Z,83.6
2016-09-25T02:12:37.565Z,83.3
2016-09-25T02:12:58.161Z,84
2016-09-25T02:13:18.760Z,83.6
2016-09-25T02:13:39.366Z,83.4
2016-09-25T02:13:59.959Z,83.3
2016-09-25T02:14:20.558Z,83.3
2016-09-25T02:14:41.147Z,83.5
2016-09-25T02:15:01.746Z,83.3
2016-09-25T02:15:22.338Z,83.5
2016-09-25T02:15:42.955Z,84.1
2016-09-25T02:16:03.551Z,84
2016-09-25T02:16:24.155Z,84
2016-09-25T02:16:44.753Z,84.3
2016-09-25T02:17:05.363Z,83.6
2016-09-25T02:17:25.972Z,83.4
2016-09-25T02:17:46.563Z,83.4
2016-09-25T02:18:07.164Z,83.4
2016-09-25T02:18:27.768Z,83.4
2016-09-25T02:18:48.357Z,83.4
2016-09-25T02:19:08.956Z,83.3
2016-09-25T02:19:29.543Z,83.5
2016-09-25T02:19:50.148Z,83.5
2016-09-25T02:20:10.723Z,83.3
2016-09-25T02:20:31.303Z,83.3
2016-09-25T02:20:51.932Z,83.3
2016-09-25T02:21:12.534Z,83.4
2016-09-25T02:21:33.125Z,83.6
2016-09-25T02:21:53.702Z,84.1
2016-09-25T02:22:14.290Z,83.8
2016-09-25T02:22:34.886Z,83.8
2016-09-25T02:22:55.499Z,83.9
2016-09-25T02:23:16.098Z,83.6
2016-09-25T02:23:36.721Z,84
2016-09-25T02:23:57.319Z,84.6
2016-09-25T02:24:17.927Z,83.7
2016-09-25T02:24:38.529Z,83.9
2016-09-25T02:24:59.105Z,83.7
2016-09-25T02:25:19.713Z,83.9
2016-09-25T02:25:40.315Z,84.3
2016-09-25T02:26:00.901Z,84.3
2016-09-25T02:26:21.497Z,84.5
2016-09-25T02:26:42.076Z,84.3
2016-09-25T02:27:02.681Z,84.3
2016-09-25T02:27:23.296Z,84.2
2016-09-25T02:27:43.909Z,84.2
2016-09-25T02:28:04.490Z,84.4
2016-09-25T02:28:25.083Z,83.9
2016-09-25T02:28:45.666Z,83.8
2016-09-25T02:29:06.275Z,83.9
2016-09-25T02:29:26.877Z,83.9
2016-09-25T02:29:47.510Z,83.9
2016-09-25T02:30:08.115Z,83.7
2016-09-25T02:30:28.706Z,83.9
2016-09-25T02:30:50.941Z,83.9
2016-09-25T02:31:11.603Z,83.9
2016-09-25T02:31:32.197Z,83.7
2016-09-25T02:31:52.794Z,83.7
2016-09-25T02:32:13.394Z,84.1
2016-09-25T02:32:33.964Z,84.1
2016-09-25T02:32:54.565Z,84.6
2016-09-25T02:33:15.153Z,84.3
2016-09-25T02:33:35.741Z,84.1
2016-09-25T02:33:56.341Z,84.2
2016-09-25T02:34:16.955Z,84.4
2016-09-25T02:34:37.541Z,84.7
2016-09-25T02:34:58.158Z,84.6
2016-09-25T02:35:18.756Z,84.8
2016-09-25T02:35:39.348Z,85.1
2016-09-25T02:35:59.953Z,84.4
2016-09-25T02:36:20.542Z,84.8
2016-09-25T02:36:41.128Z,84.4
2016-09-25T02:37:01.722Z,85.3
2016-09-25T02:37:22.337Z,85.1
2016-09-25T02:37:42.952Z,84.9
2016-09-25T02:38:03.553Z,84.9
2016-09-25T02:38:24.143Z,85.4
2016-09-25T02:38:44.735Z,85.3
2016-09-25T02:39:05.320Z,85.4
2016-09-25T02:39:25.897Z,85.2
2016-09-25T02:39:46.472Z,85.8
2016-09-25T02:40:07.052Z,85.4
2016-09-25T02:40:27.636Z,85.4
2016-09-25T02:40:48.240Z,85.8
2016-09-25T02:41:08.830Z,85.4
2016-09-25T02:41:29.425Z,85.4
2016-09-25T02:41:50.019Z,85.4
2016-09-25T02:42:10.637Z,85.8
2016-09-25T02:42:31.249Z,85.5
2016-09-25T02:42:51.826Z,85.8
2016-09-25T02:43:12.415Z,85.5
2016-09-25T02:43:33.008Z,85.5
2016-09-25T02:43:53.600Z,85.3
2016-09-25T02:44:14.200Z,85.4
2016-09-25T02:44:34.779Z,85.4
2016-09-25T02:44:55.351Z,85.5
2016-09-25T02:45:15.961Z,85.6
2016-09-25T02:45:36.565Z,85.8
2016-09-25T02:45:57.149Z,85.4
2016-09-25T02:46:17.756Z,85.6
2016-09-25T02:46:38.336Z,85.6
2016-09-25T02:46:58.913Z,85.6
2016-09-25T02:47:19.514Z,85.4
2016-09-25T02:47:40.138Z,85.1
2016-09-25T02:48:00.748Z,85.4
2016-09-25T02:48:21.330Z,85.8
2016-09-25T02:48:41.919Z,85.4
2016-09-25T02:49:02.523Z,85.8
2016-09-25T02:49:23.144Z,85
2016-09-25T02:49:43.757Z,85.4
2016-09-25T02:50:04.369Z,85.8
2016-09-25T02:50:24.962Z,85.8
2016-09-25T02:50:45.538Z,85.2
2016-09-25T02:51:06.142Z,85.1
2016-09-25T02:51:26.753Z,85.4
2016-09-25T02:51:47.345Z,85.3
2016-09-25T02:52:07.939Z,85.4
2016-09-25T02:52:28.535Z,85.4
2016-09-25T02:52:49.134Z,85.1
2016-09-25T02:53:09.725Z,85.4
2016-09-25T02:53:30.329Z,85
2016-09-25T02:53:50.899Z,85.3
2016-09-25T02:54:11.475Z,85.4
2016-09-25T02:54:32.093Z,84.8
2016-09-25T02:54:52.684Z,84.9
2016-09-25T02:55:13.294Z,85
2016-09-25T02:55:33.889Z,85.2
2016-09-25T02:55:54.467Z,85.3
2016-09-25T02:56:15.084Z,84.7
2016-09-25T02:56:35.666Z,85
2016-09-25T02:56:56.277Z,84.5
2016-09-25T02:57:16.894Z,84.4
2016-09-25T02:57:37.487Z,84.4
2016-09-25T02:57:58.094Z,84.6
2016-09-25T02:58:18.704Z,84.4
2016-09-25T02:58:39.306Z,84.5
2016-09-25T02:58:59.908Z,84.4
2016-09-25T02:59:20.498Z,84.6
2016-09-25T02:59:41.090Z,84.6
2016-09-25T03:00:01.672Z,84
2016-09-25T03:00:22.284Z,84.1
2016-09-25T03:00:42.906Z,84.5
2016-09-25T03:01:03.528Z,84.6
2016-09-25T03:01:24.123Z,84.3
2016-09-25T03:01:44.704Z,84.6
2016-09-25T03:02:05.317Z,83.7
2016-09-25T03:02:25.916Z,83.9
2016-09-25T03:02:46.524Z,84.6
2016-09-25T03:03:07.139Z,84.2
2016-09-25T03:03:27.748Z,84.4
2016-09-25T03:03:48.353Z,84.3
2016-09-25T03:04:08.942Z,84.5
2016-09-25T03:04:29.557Z,84.3
2016-09-25T03:04:50.141Z,84.5
2016-09-25T03:05:10.726Z,84.3
2016-09-25T03:05:31.299Z,84.4
2016-09-25T03:05:51.920Z,84.4
2016-09-25T03:06:12.544Z,84.4
2016-09-25T03:06:33.146Z,84.3
2016-09-25T03:06:53.735Z,84.4
2016-09-25T03:07:14.343Z,84.3
2016-09-25T03:07:34.937Z,84.2
2016-09-25T03:07:55.565Z,84.7
2016-09-25T03:08:16.165Z,84.4
2016-09-25T03:08:36.755Z,84.5
2016-09-25T03:08:57.363Z,84.4
2016-09-25T03:09:17.982Z,84.4
2016-09-25T03:09:38.594Z,84.5
2016-09-25T03:09:59.175Z,84.4
2016-09-25T03:10:19.769Z,84.4
2016-09-25T03:10:40.383Z,84.1
2016-09-25T03:11:00.985Z,84.4
2016-09-25T03:11:21.602Z,84.5
2016-09-25T03:11:42.207Z,84.2
2016-09-25T03:12:02.788Z,84.6
2016-09-25T03:12:23.379Z,84.4
2016-09-25T03:12:43.970Z,84.2
2016-09-25T03:13:04.545Z,84.4
2016-09-25T03:13:25.153Z,84.4
2016-09-25T03:13:45.757Z,84.4
2016-09-25T03:14:06.363Z,84.4
2016-09-25T03:14:26.963Z,84.5
2016-09-25T03:14:47.581Z,84.5
2016-09-25T03:15:08.229Z,84.4
2016-09-25T03:15:28.820Z,84.9
2016-09-25T03:15:49.415Z,84.9
2016-09-25T03:16:10.004Z,84.9
2016-09-25T03:16:30.595Z,84.4
2016-09-25T03:16:51.193Z,84.4
2016-09-25T03:17:11.826Z,84.4
2016-09-25T03:17:32.427Z,84.7
2016-09-25T03:17:53.006Z,84.7
2016-09-25T03:18:13.628Z,84.9
2016-09-25T03:18:34.211Z,84.5
2016-09-25T03:18:54.814Z,84.7
2016-09-25T03:19:15.432Z,84.6
2016-09-25T03:19:36.056Z,84.5
2016-09-25T03:19:56.673Z,84.6
2016-09-25T03:20:17.264Z,84.4
2016-09-25T03:20:37.873Z,84.4
2016-09-25T03:20:58.452Z,84.5
2016-09-25T03:21:19.061Z,85.4
2016-09-25T03:21:39.653Z,85.1
2016-09-25T03:22:00.239Z,85.1
2016-09-25T03:22:20.836Z,85
2016-09-25T03:22:41.425Z,84.5
2016-09-25T03:23:02.032Z,84.4
2016-09-25T03:23:22.626Z,84.8
2016-09-25T03:23:43.198Z,84.8
2016-09-25T03:24:03.791Z,84.7
2016-09-25T03:24:24.398Z,84.5
2016-09-25T03:24:45.022Z,84.4
2016-09-25T03:25:05.645Z,84.6
2016-09-25T03:25:26.230Z,84.9
2016-09-25T03:25:46.822Z,84.8
2016-09-25T03:26:07.421Z,84.6
2016-09-25T03:26:28.029Z,84.3
2016-09-25T03:26:48.633Z,84.6
2016-09-25T03:27:09.212Z,84.2
2016-09-25T03:27:29.792Z,84.3
2016-09-25T03:27:50.384Z,84.3
2016-09-25T03:28:11.005Z,84.8
2016-09-25T03:28:31.597Z,84.5
2016-09-25T03:28:52.234Z,84.6
2016-09-25T03:29:12.838Z,84.6
2016-09-25T03:29:33.473Z,84.5
2016-09-25T03:29:54.069Z,84.5
2016-09-25T03:30:14.668Z,84.8
2016-09-25T03:30:35.253Z,84.6
2016-09-25T03:30:55.849Z,85.1
2016-09-25T03:31:16.449Z,85.2
2016-09-25T03:31:37.049Z,85.3
2016-09-25T03:31:57.617Z,85.1
2016-09-25T03:32:18.203Z,85.1
2016-09-25T03:32:38.793Z,85
2016-09-25T03:32:59.430Z,84.8
2016-09-25T03:33:20.034Z,85
2016-09-25T03:33:40.624Z,85.1
2016-09-25T03:34:01.204Z,85
2016-09-25T03:34:21.803Z,84.8
2016-09-25T03:34:42.390Z,84.9
2016-09-25T03:35:02.991Z,85
2016-09-25T03:35:23.576Z,85.1
2016-09-25T03:35:44.193Z,84.9
2016-09-25T03:36:04.798Z,85
2016-09-25T03:36:25.395Z,85.1
2016-09-25T03:36:46.010Z,84.9
2016-09-25T03:37:06.597Z,85.2
2016-09-25T03:37:27.188Z,85.2
2016-09-25T03:37:47.800Z,84.8
2016-09-25T03:38:08.388Z,85.2
2016-09-25T03:38:28.983Z,84.4
2016-09-25T03:38:49.582Z,84.6
2016-09-25T03:39:10.181Z,85.1
2016-09-25T03:39:30.803Z,84.8
2016-09-25T03:39:51.409Z,85.1
2016-09-25T03:40:12.001Z,85
2016-09-25T03:40:32.601Z,85
2016-09-25T03:40:53.210Z,84.8
2016-09-25T03:41:13.812Z,85.1
2016-09-25T03:41:34.414Z,85.1
2016-09-25T03:41:54.997Z,85
2016-09-25T03:42:15.595Z,84.9
2016-09-25T03:42:36.183Z,85
2016-09-25T03:42:56.785Z,85
2016-09-25T03:43:17.401Z,85.2
2016-09-25T03:43:38.002Z,85.2
2016-09-25T03:43:58.584Z,85.1
2016-09-25T03:44:19.180Z,85.1
2016-09-25T03:44:39.777Z,84.9
2016-09-25T03:45:00.384Z,84.8
2016-09-25T03:45:21.137Z,85.1
2016-09-25T03:45:41.742Z,84.6
2016-09-25T03:46:02.345Z,84.7
2016-09-25T03:46:22.964Z,84.4
2016-09-25T03:46:43.547Z,84.7
2016-09-25T03:47:04.162Z,84.4
2016-09-25T03:47:24.780Z,84.7
2016-09-25T03:47:45.378Z,84.4
2016-09-25T03:48:05.977Z,84.4
2016-09-25T03:48:26.575Z,84.6
2016-09-25T03:48:47.180Z,84.5
2016-09-25T03:49:07.803Z,84.4
2016-09-25T03:49:28.429Z,84.4
2016-09-25T03:49:49.025Z,84.7
2016-09-25T03:50:09.634Z,85
2016-09-25T03:50:30.231Z,85
2016-09-25T03:50:50.810Z,84.8
2016-09-25T03:51:11.422Z,84.9
2016-09-25T03:51:32.021Z,85.1
2016-09-25T03:51:52.625Z,84.5
2016-09-25T03:52:13.227Z,85.2
2016-09-25T03:52:33.826Z,85.2
2016-09-25T03:52:54.419Z,85.1
2016-09-25T03:53:15.016Z,85.1
2016-09-25T03:53:35.620Z,85
2016-09-25T03:53:56.221Z,84.4
2016-09-25T03:54:16.835Z,84.3
2016-09-25T03:54:37.429Z,84.6
2016-09-25T03:54:58.005Z,84.2
2016-09-25T03:55:18.607Z,84.6
2016-09-25T03:55:39.195Z,84.3
2016-09-25T03:55:59.793Z,84.8
2016-09-25T03:56:20.397Z,84.8
2016-09-25T03:56:40.978Z,84.4
2016-09-25T03:57:01.571Z,85.1
2016-09-25T03:57:22.181Z,84.4
2016-09-25T03:57:42.862Z,84.6
2016-09-25T03:58:03.469Z,85.2
2016-09-25T03:58:24.069Z,85
2016-09-25T03:58:44.677Z,85.2
2016-09-25T03:59:05.308Z,85.1
2016-09-25T03:59:25.907Z,84.9
2016-09-25T03:59:46.500Z,85
2016-09-25T04:00:07.115Z,84.8
2016-09-25T04:00:27.725Z,84.8
2016-09-25T04:00:48.332Z,85.2
2016-09-25T04:01:08.919Z,85.3
2016-09-25T04:01:29.521Z,85.2
2016-09-25T04:01:50.140Z,85.4
2016-09-25T04:02:10.806Z,85.1
2016-09-25T04:02:31.429Z,85.1
2016-09-25T04:02:52.033Z,85.1
2016-09-25T04:03:12.633Z,85.2
2016-09-25T04:03:33.213Z,85.3
2016-09-25T04:03:53.828Z,85.4
2016-09-25T04:04:14.431Z,85.3
2016-09-25T04:04:35.043Z,84.8
2016-09-25T04:04:55.627Z,85.1
2016-09-25T04:05:16.263Z,84.9
2016-09-25T04:05:36.888Z,85
2016-09-25T04:05:57.481Z,84.9
2016-09-25T04:06:18.081Z,85.1
2016-09-25T04:06:38.684Z,84.8
2016-09-25T04:06:59.276Z,85
2016-09-25T04:07:19.882Z,84.8
2016-09-25T04:07:40.490Z,85.1
2016-09-25T04:08:01.075Z,85
2016-09-25T04:08:21.657Z,85.3
2016-09-25T04:08:42.283Z,85
2016-09-25T04:09:02.882Z,85
2016-09-25T04:09:23.470Z,84.9
2016-09-25T04:09:44.053Z,84.8
2016-09-25T04:10:04.649Z,85.3
2016-09-25T04:10:25.265Z,85.2
2016-09-25T04:10:45.878Z,85.1
2016-09-25T04:11:06.491Z,85.3
2016-09-25T04:11:27.083Z,85.3
2016-09-25T04:11:47.689Z,85.1
2016-09-25T04:12:08.290Z,85.4
2016-09-25T04:12:28.891Z,85.3
2016-09-25T04:12:49.506Z,85.3
2016-09-25T04:13:10.109Z,85.2
2016-09-25T04:13:30.698Z,85.4
2016-09-25T04:13:51.318Z,85.4
2016-09-25T04:14:11.914Z,85.3
2016-09-25T04:14:32.514Z,85.1
2016-09-25T04:14:53.115Z,85.3
2016-09-25T04:15:13.715Z,85.4
2016-09-25T04:15:34.328Z,85.1
2016-09-25T04:15:54.935Z,85.3
2016-09-25T04:16:15.564Z,85.2
2016-09-25T04:16:36.164Z,85.3
2016-09-25T04:16:56.774Z,85.2
2016-09-25T04:17:17.348Z,85.7
2016-09-25T04:17:37.996Z,85.4
2016-09-25T04:17:58.567Z,85.3
2016-09-25T04:18:19.160Z,85.4
2016-09-25T04:18:39.760Z,85.5
2016-09-25T04:19:00.351Z,85.2
2016-09-25T04:19:20.932Z,85.4
2016-09-25T04:19:41.549Z,85.3
2016-09-25T04:20:02.149Z,85.6
2016-09-25T04:20:22.753Z,85.7
2016-09-25T04:20:43.339Z,86.2
2016-09-25T04:21:03.938Z,85.7
2016-09-25T04:21:24.541Z,86
2016-09-25T04:21:45.130Z,86.1
2016-09-25T04:22:05.753Z,85.6
2016-09-25T04:22:26.365Z,85.4
2016-09-25T04:22:46.985Z,85.5
2016-09-25T04:23:07.580Z,85.6
2016-09-25T04:23:28.181Z,85.4
2016-09-25T04:23:48.788Z,85.8
2016-09-25T04:24:09.390Z,85.1
2016-09-25T04:24:29.993Z,85.2
2016-09-25T04:24:50.583Z,85.2
2016-09-25T04:25:11.171Z,85
2016-09-25T04:25:31.768Z,84.9
2016-09-25T04:25:52.369Z,85.1
2016-09-25T04:26:12.986Z,85.6
2016-09-25T04:26:33.590Z,85.6
2016-09-25T04:26:54.178Z,85.5
2016-09-25T04:27:14.761Z,85.6
2016-09-25T04:27:35.358Z,85.7
2016-09-25T04:27:55.962Z,85.2
2016-09-25T04:28:16.532Z,85.3
2016-09-25T04:28:37.118Z,85.4
2016-09-25T04:28:57.727Z,85.3
2016-09-25T04:29:18.334Z,85.7
2016-09-25T04:29:38.934Z,86.1
2016-09-25T04:29:59.528Z,85.6
2016-09-25T04:30:20.141Z,85.8
2016-09-25T04:30:40.751Z,85.8
2016-09-25T04:31:01.357Z,85.3
2016-09-25T04:31:21.973Z,86
2016-09-25T04:31:42.575Z,85.6
2016-09-25T04:32:03.175Z,85.8
2016-09-25T04:32:23.781Z,85.8
2016-09-25T04:32:44.382Z,85.5
2016-09-25T04:33:04.969Z,85.2
2016-09-25T04:33:25.601Z,85.6
2016-09-25T04:33:46.202Z,85.3
2016-09-25T04:34:06.794Z,84.8
2016-09-25T04:34:27.388Z,85.1
2016-09-25T04:34:47.985Z,85.3
2016-09-25T04:35:08.567Z,85.3
2016-09-25T04:35:29.178Z,85.3